Bettendorf, IA (52722)

4:26 AM CDT on June 20, 2018 (GMT -0500)
Central Bettendorf | | Change Station
Active Advisory: Flood Warning

Elev 665 ft 41.53 °N, 90.50 °W | Updated 6 seconds ago

Overcast
Overcast
71.6 °F
Feels Like 77 °F
N
0
Wind Variable Wind from NE
Gusts 0.0 mph

Today
High -- | Low -- °F
--% Chance of Precip.
Yesterday
High -- | Low -- °F
Precip. -- in
Pressure 29.86 in
Visibility 3.0 miles
Clouds Overcast 300 ft
Heat Index 77 °F
Dew Point 48 °F
Humidity 43%
Rainfall 0.00 in
Snow Depth Not available.
5:28 AM 8:39 PM
Waxing Crescent, 49% visible
METAR KMLI 200852Z AUTO 05004KT 3SM BR OVC003 22/21 A2987 RMK AO2 SLP110 T02170211 57003
Pressure 29.86 in
Visibility 3.0 miles
Clouds Overcast 300 ft
Heat Index 77 °F
Dew Point 48 °F
Humidity 43%
Rainfall 0.00 in
Snow Depth Not available.
5:28 AM 8:39 PM
Waxing Crescent, 49% visible
METAR KMLI 200852Z AUTO 05004KT 3SM BR OVC003 22/21 A2987 RMK AO2 SLP110 T02170211 57003

Get Your Daily Forecast Email!

Thanks for signing up!

Be on the lookout for a verification email in your inbox.

You'll start receiving severe weather alerts in your inbox..

×

10-Day Weather Forecast

Almanac

Astronomy

Jun. 20, 2018 Rise Set
Actual Time
Civil Twilight
Nautical Twilight
Astronomical Twilight
Moon
Length of Visible Light
Length of Day
Tomorrow will be .
, % of the Moon is Illuminated

Today's Extremes

State Highs State Lows

Community

WunderPhotos

Category 6

Welcome to Category 6. This is the collective home for Weather Underground's featured writeups by Dr. Jeff Masters (right), Bob Henson (left), Chris Burt, and other regular contributors.

Nearby

Air Quality

  Air Quality AQ Index Pollutant
Not available.

Snow Depth

Station Depth Elevation

Earthquake Activity

City Distance Mag. Time & Date
Minimum magnitude displayed is 2.5.

Coastal Water Temperatures

Place Temperature

Stations

Nearby Weather Stations

Station Location Temp. Windchill Dew Point Humidity Wind Precip. Elev Updated Type
                   

Watches & Warnings

Flood Warning
Issued: 3:43 AM CDT Jun. 20, 2018 – National Weather Service

... Flood Warning remains in effect until Friday...

The Flood Warning continues for
the wapsipinicon river near De Witt 4s.
* Until Friday.
* At 3:30 am Wednesday the stage was 11.8 feet and steady.
* Flood stage is 11.0 feet.
* Moderate flooding is occurring.
* Forecast, remain nearly steady, then begin to fall Thursday. Fall
below flood stage Friday.
* Impact, at 11.5 feet, moderate flood stage. Water affects homes
along old U.S. Highway 61.


Lat... Lon 4200 9090 4184 9071 4177 9033 4169 9035
      4171 9080 4185 9090